Time;durP1;ratioP1;P1;durP2;ratioP2;P2;SDS_P1;SDS_P2;PMS_P1;PMS_P2;Temp;Humidity;BMP_temperature;BMP_pressure;BME280_temperature;BME280_humidity;BME280_pressure;Samples;Min_cycle;Max_cycle;Signal;HPM_P1;HPM_P2
2023/05/11 00:10:31;;;;;;;6.45;2.33;;;11.20;99.90;;;;;;6289842;22;20068;-81
2023/05/11 00:13:06;;;;;;;6.32;2.80;;;;;;;;;;6252728;23;20463;-81
2023/05/11 00:15:32;;;;;;;7.28;2.70;;;;;;;;;;6259433;23;20015;-81
2023/05/11 00:17:58;;;;;;;9.88;3.58;;;;;;;;;;6260382;23;20005;-81
2023/05/11 00:20:25;;;;;;;5.20;2.58;;;;;;;;;;6232620;23;20008;-81
2023/05/11 00:22:54;;;;;;;7.13;3.08;;;;;;;;;;6258479;22;20004;-80
2023/05/11 00:25:20;;;;;;;7.70;2.28;;;;;;;;;;6234829;23;20004;-82
2023/05/11 00:27:47;;;;;;;8.48;2.42;;;;;;;;;;6263571;23;20003;-83
2023/05/11 00:30:14;;;;;;;6.45;2.30;;;;;;;;;;6247129;23;20026;-83
2023/05/11 00:32:41;;;;;;;4.93;2.47;;;;;;;;;;6273724;22;20032;-83
2023/05/11 00:35:10;;;;;;;7.10;2.75;;;11.40;99.90;;;;;;6272283;22;20031;-82
2023/05/11 00:37:39;;;;;;;4.38;2.00;;;;;;;;;;6247087;23;20007;-83
2023/05/11 00:40:06;;;;;;;5.05;2.00;;;;;;;;;;6245371;23;20000;-81
2023/05/11 00:42:32;;;;;;;6.20;2.20;;;;;;;;;;6239330;23;20029;-81
2023/05/11 00:44:58;;;;;;;4.15;1.80;;;;;;;;;;6233304;23;20012;-80
2023/05/11 00:47:24;;;;;;;3.88;2.03;;;11.50;99.90;;;;;;6260764;23;20006;-82
2023/05/11 00:49:57;;;;;;;5.07;2.20;;;;;;;;;;6231146;23;19996;-81
2023/05/11 00:52:23;;;;;;;5.07;2.00;;;;;;;;;;6231200;22;20004;-81
2023/05/11 00:54:49;;;;;;;7.05;2.13;;;;;;;;;;6258243;23;20011;-83
2023/05/11 00:57:16;;;;;;;5.70;2.10;;;11.30;99.90;;;;;;6229230;23;20007;-83
2023/05/11 01:00:17;;;;;;;4.03;1.85;;;11.30;99.90;;;;;;6255731;23;20443;-82
2023/05/11 01:02:44;;;;;;;3.67;1.88;;;;;;;;;;6260678;22;20060;-82
2023/05/11 01:05:17;;;;;;;10.73;2.78;;;;;;;;;;6259892;23;20004;-82
2023/05/11 01:08:35;;;;;;;4.50;2.03;;;11.20;99.90;;;;;;6232114;23;20000;-82
2023/05/11 01:11:20;;;;;;;4.30;2.08;;;11.20;99.90;;;;;;6228400;23;20016;-82
2023/05/11 01:14:20;;;;;;;4.22;2.00;;;11.30;99.90;;;;;;6262046;22;20068;-82
2023/05/11 01:17:14;;;;;;;4.35;1.98;;;11.30;99.90;;;;;;6236454;23;20000;-82
2023/05/11 01:20:04;;;;;;;4.22;2.03;;;11.40;99.90;;;;;;6262192;23;20001;-81
2023/05/11 01:23:36;;;;;;;3.97;2.13;;;11.40;99.90;;;;;;6262822;22;20335;-81
2023/05/11 01:26:05;;;;;;;3.83;2.15;;;;;;;;;;6197534;23;20502;-80
2023/05/11 01:29:21;;;;;;;3.85;2.40;;;11.30;99.90;;;;;;6235926;23;20075;-82
2023/05/11 01:31:58;;;;;;;4.25;2.10;;;11.30;99.90;;;;;;6233397;23;20015;-82
2023/05/11 01:34:40;;;;;;;6.95;2.25;;;;;;;;;;6235639;23;20020;-83
2023/05/11 01:37:08;;;;;;;6.22;2.50;;;;;;;;;;6263583;23;20007;-83
2023/05/11 01:40:01;;;;;;;4.70;2.50;;;11.10;99.90;;;;;;6239310;23;20001;-80
2023/05/11 01:42:46;;;;;;;5.55;2.30;;;11.20;99.90;;;;;;6247203;22;20023;-82
2023/05/11 01:45:18;;;;;;;6.60;2.40;;;11.30;99.90;;;;;;6243982;23;19993;-80
2023/05/11 01:47:52;;;;;;;5.40;2.50;;;11.30;99.90;;;;;;6275038;22;19988;-81
2023/05/11 01:50:25;;;;;;;5.65;2.88;;;11.30;99.90;;;;;;6240586;23;20011;-82
2023/05/11 01:53:02;;;;;;;5.05;3.33;;;11.40;99.90;;;;;;6208388;23;20036;-82
2023/05/11 01:55:35;;;;;;;6.15;3.88;;;11.40;99.90;;;;;;6231551;23;20004;-82
2023/05/11 01:58:12;;;;;;;4.55;2.80;;;11.50;99.90;;;;;;6235218;23;20008;-82
2023/05/11 02:00:44;;;;;;;6.45;3.70;;;;;;;;;;6233915;23;20033;-81
2023/05/11 02:03:33;;;;;;;5.95;4.55;;;11.40;99.90;;;;;;6261034;22;20026;-84
2023/05/11 02:06:20;;;;;;;7.45;5.10;;;11.50;99.90;;;;;;6261970;23;19996;-83
2023/05/11 02:08:52;;;;;;;8.93;5.60;;;11.50;99.90;;;;;;6259455;23;20008;-81
2023/05/11 02:11:28;;;;;;;9.25;5.43;;;11.50;99.90;;;;;;6268706;22;19996;-83
2023/05/11 02:14:00;;;;;;;8.77;5.00;;;11.50;99.90;;;;;;6231099;23;20000;-83
2023/05/11 02:16:30;;;;;;;6.93;5.10;;;;;;;;;;6232244;23;19992;-81
2023/05/11 02:19:20;;;;;;;8.85;5.00;;;11.50;99.90;;;;;;6272643;22;20043;-81
2023/05/11 02:21:48;;;;;;;7.07;4.38;;;11.50;99.90;;;;;;6268931;23;20000;-81
2023/05/11 02:24:21;;;;;;;9.00;5.63;;;11.70;99.90;;;;;;6267344;22;20000;-83
2023/05/11 02:26:53;;;;;;;7.32;4.82;;;;;;;;;;6230769;23;20004;-81
2023/05/11 02:29:20;;;;;;;6.68;5.15;;;;;;;;;;6231367;23;20000;-82
2023/05/11 02:32:11;;;;;;;7.72;5.00;;;11.60;99.90;;;;;;6231512;23;20023;-82
2023/05/11 02:35:02;;;;;;;8.43;5.10;;;11.60;99.90;;;;;;6231195;23;20062;-82
2023/05/11 02:37:34;;;;;;;;;;;11.60;99.90;;;;;;6207425;23;20043;-82
2023/05/11 02:40:04;;;;;;;7.70;5.53;;;11.60;99.90;;;;;;6230898;23;19907;-82
2023/05/11 02:42:35;;;;;;;;;;;11.60;99.90;;;;;;6231361;22;20023;-81
2023/05/11 02:45:07;;;;;;;10.07;6.00;;;11.60;99.90;;;;;;6257693;23;19900;-82
2023/05/11 02:47:43;;;;;;;8.18;5.32;;;11.60;99.90;;;;;;6226275;23;20336;-82
2023/05/11 02:53:11;;;;;;;8.43;6.60;;;11.60;99.90;;;;;;6242224;22;20078;-83
2023/05/11 02:55:42;;;;;;;10.00;6.47;;;11.60;99.90;;;;;;6226131;23;20008;-84
2023/05/11 02:58:08;;;;;;;9.48;5.82;;;11.60;99.90;;;;;;6251854;22;20011;-84
2023/05/11 03:00:37;;;;;;;10.43;6.22;;;12.40;99.90;;;;;;6254833;22;20311;-80
2023/05/11 03:03:03;;;;;;;9.20;6.07;;;11.70;99.90;;;;;;6250306;22;20016;-82
2023/05/11 03:05:32;;;;;;;9.52;6.68;;;11.70;99.90;;;;;;6254172;23;20004;-82
2023/05/11 03:07:59;;;;;;;8.73;6.05;;;11.70;99.90;;;;;;6256930;22;20004;-84
2023/05/11 03:10:26;;;;;;;10.40;6.13;;;11.60;99.90;;;;;;6255218;23;20003;-85
2023/05/11 03:12:53;;;;;;;8.25;6.07;;;11.50;99.90;;;;;;6252879;22;20133;-82
2023/05/11 03:15:20;;;;;;;9.88;7.18;;;11.40;99.90;;;;;;6255650;22;20004;-81
2023/05/11 03:17:48;;;;;;;8.57;6.07;;;11.50;99.90;;;;;;6255686;22;20473;-84
2023/05/11 03:20:16;;;;;;;9.75;6.80;;;11.50;99.90;;;;;;6253657;23;20018;-84
2023/05/11 03:22:46;;;;;;;8.18;6.00;;;11.50;99.90;;;;;;6254889;22;20011;-83
2023/05/11 03:25:16;;;;;;;9.93;6.40;;;11.50;99.90;;;;;;6257140;22;20382;-84
2023/05/11 03:27:42;;;;;;;9.23;6.25;;;11.50;99.90;;;;;;6252654;22;20015;-84
2023/05/11 03:30:10;;;;;;;9.80;6.75;;;11.40;99.90;;;;;;6255978;23;20014;-83
2023/05/11 03:32:36;;;;;;;10.30;6.30;;;11.50;99.90;;;;;;6255676;23;20091;-83
2023/05/11 03:35:02;;;;;;;10.13;7.43;;;11.50;99.90;;;;;;6254148;23;20018;-83
2023/05/11 03:37:30;;;;;;;13.02;7.32;;;11.60;99.90;;;;;;6252499;23;20015;-82
2023/05/11 03:39:59;;;;;;;13.68;7.43;;;11.50;99.90;;;;;;6253244;22;20007;-84
2023/05/11 03:42:27;;;;;;;8.73;6.97;;;11.50;99.90;;;;;;6250717;22;20008;-82
2023/05/11 03:44:57;;;;;;;13.00;7.28;;;11.70;99.90;;;;;;6252096;23;20438;-80
2023/05/11 03:47:26;;;;;;;10.82;7.10;;;12.60;99.90;;;;;;6252218;23;20004;-81
2023/05/11 03:49:52;;;;;;;11.32;7.35;;;11.60;99.90;;;;;;6253144;22;20008;-84
2023/05/11 03:52:20;;;;;;;12.55;8.13;;;11.60;99.90;;;;;;6249272;22;20019;-80
2023/05/11 03:54:45;;;;;;;10.50;7.25;;;11.60;99.90;;;;;;6253199;23;20004;-82
2023/05/11 03:57:12;;;;;;;11.10;8.10;;;11.60;99.90;;;;;;6253062;23;20015;-83
2023/05/11 03:59:38;;;;;;;12.23;7.97;;;11.60;99.90;;;;;;6247868;22;20350;-80
2023/05/11 04:02:04;;;;;;;10.32;7.93;;;11.60;99.90;;;;;;6250484;23;20061;-81
2023/05/11 04:04:31;;;;;;;10.05;7.10;;;;;;;;;;6252479;22;20364;-86
2023/05/11 04:06:57;;;;;;;12.27;8.25;;;11.60;99.90;;;;;;6248776;22;20452;-84
2023/05/11 04:09:23;;;;;;;11.75;7.45;;;11.60;99.90;;;;;;6253420;22;20343;-83
2023/05/11 04:11:49;;;;;;;9.52;6.55;;;11.70;99.90;;;;;;6254465;23;20060;-82
2023/05/11 04:14:16;;;;;;;10.00;6.53;;;11.50;99.90;;;;;;6249790;22;20001;-82
2023/05/11 04:16:42;;;;;;;11.10;6.78;;;11.60;99.90;;;;;;6251693;22;20091;-81
2023/05/11 04:19:08;;;;;;;9.45;7.32;;;12.60;99.90;;;;;;6252716;22;20002;-87
2023/05/11 04:21:34;;;;;;;12.07;7.25;;;;;;;;;;6252343;22;20079;-80
2023/05/11 04:24:00;;;;;;;9.30;6.85;;;11.70;99.90;;;;;;6252916;23;20008;-84
2023/05/11 04:26:26;;;;;;;11.98;6.97;;;11.70;99.90;;;;;;6259498;22;20016;-83
2023/05/11 04:28:52;;;;;;;10.27;6.85;;;11.70;99.90;;;;;;6256713;22;20011;-84
2023/05/11 04:31:17;;;;;;;13.68;7.95;;;11.70;99.90;;;;;;6255471;22;20015;-84
2023/05/11 04:33:43;;;;;;;12.98;6.80;;;11.60;99.90;;;;;;6256287;22;20000;-83
2023/05/11 04:36:09;;;;;;;12.90;7.18;;;11.80;99.90;;;;;;6257622;22;20008;-84
2023/05/11 04:38:34;;;;;;;9.55;6.93;;;11.70;99.90;;;;;;6253752;22;20008;-84
2023/05/11 04:41:07;;;;;;;11.52;7.85;;;11.90;99.90;;;;;;6256679;22;20008;-83
2023/05/11 04:43:34;;;;;;;12.38;7.95;;;11.80;99.90;;;;;;6253189;23;20087;-85
2023/05/11 04:46:00;;;;;;;12.98;8.75;;;11.80;99.90;;;;;;6251102;23;20000;-85
2023/05/11 04:48:26;;;;;;;12.68;8.95;;;11.90;99.90;;;;;;6255815;22;20031;-82
2023/05/11 04:50:56;;;;;;;16.92;10.57;;;11.90;99.90;;;;;;6255726;22;20004;-84
2023/05/11 04:53:22;;;;;;;14.23;9.80;;;11.90;99.90;;;;;;6252442;22;20095;-83
2023/05/11 04:55:48;;;;;;;16.98;11.18;;;;;;;;;;6255551;22;20004;-83
2023/05/11 04:58:14;;;;;;;17.13;11.75;;;;;;;;;;6248080;22;20458;-85
2023/05/11 05:00:40;;;;;;;15.23;11.18;;;;;;;;;;6243281;23;20015;-80
2023/05/11 05:03:06;;;;;;;15.07;9.45;;;11.90;99.90;;;;;;6245939;22;20000;-83
2023/05/11 05:05:32;;;;;;;16.90;10.93;;;;;;;;;;6250404;23;20011;-83
2023/05/11 05:07:58;;;;;;;14.30;9.40;;;12.10;99.90;;;;;;6248684;22;20358;-84
2023/05/11 05:10:23;;;;;;;15.68;10.45;;;12.00;99.90;;;;;;6243173;22;20003;-82
2023/05/11 05:12:49;;;;;;;15.98;9.95;;;;;;;;;;6247032;22;20012;-84
2023/05/11 05:15:15;;;;;;;15.93;10.07;;;12.10;99.90;;;;;;6247812;22;20000;-81
2023/05/11 05:17:41;;;;;;;16.25;10.18;;;13.10;99.90;;;;;;6249181;22;20055;-81
2023/05/11 05:20:07;;;;;;;16.65;9.63;;;12.00;99.90;;;;;;6250000;22;20085;-84
2023/05/11 05:22:33;;;;;;;12.15;8.93;;;12.00;99.90;;;;;;6253746;23;20008;-85
2023/05/11 05:24:59;;;;;;;13.88;9.85;;;;;;;;;;6223607;23;20004;-85
2023/05/11 05:27:25;;;;;;;13.20;9.63;;;12.10;99.90;;;;;;6254059;23;20004;-84
2023/05/11 05:29:51;;;;;;;16.05;11.05;;;;;;;;;;6252975;22;20406;-83
2023/05/11 05:32:16;;;;;;;14.07;9.30;;;12.20;99.90;;;;;;6247393;23;20280;-84
2023/05/11 05:34:42;;;;;;;10.68;7.15;;;12.30;99.90;;;;;;6251085;22;20011;-86
2023/05/11 05:37:09;;;;;;;14.35;7.70;;;;;;;;;;6249753;22;20038;-83
2023/05/11 05:39:34;;;;;;;11.27;7.15;;;12.30;99.90;;;;;;6245399;22;20004;-81
2023/05/11 05:42:01;;;;;;;10.70;7.72;;;12.30;99.90;;;;;;6244330;22;20150;-80
2023/05/11 05:44:27;;;;;;;10.77;7.32;;;;;;;;;;6248012;22;20007;-79
2023/05/11 05:46:53;;;;;;;14.27;7.75;;;12.30;99.90;;;;;;6243873;23;20004;-84
2023/05/11 05:49:19;;;;;;;12.10;7.70;;;;;;;;;;6246992;22;20877;-85
2023/05/11 05:51:45;;;;;;;13.23;7.38;;;12.30;99.90;;;;;;6250309;22;20020;-81
2023/05/11 05:54:12;;;;;;;15.73;8.50;;;12.30;99.90;;;;;;6225937;23;20159;-84
2023/05/11 05:56:39;;;;;;;15.90;9.00;;;12.20;99.90;;;;;;6217177;23;20042;-81
2023/05/11 05:59:07;;;;;;;14.07;9.38;;;12.40;99.90;;;;;;6219545;23;20035;-81
2023/05/11 06:01:34;;;;;;;12.05;8.55;;;12.40;99.90;;;;;;6219146;23;20087;-82
2023/05/11 06:03:59;;;;;;;16.60;9.40;;;12.40;99.90;;;;;;6220040;23;20283;-82
2023/05/11 06:06:26;;;;;;;12.63;9.23;;;12.40;99.90;;;;;;6199127;23;20008;-83
2023/05/11 06:08:52;;;;;;;14.05;10.32;;;12.30;99.90;;;;;;6223912;23;20012;-85
2023/05/11 06:11:17;;;;;;;17.42;11.27;;;12.40;99.90;;;;;;6217771;23;20316;-81
2023/05/11 06:13:43;;;;;;;18.85;13.20;;;;;;;;;;6253143;23;20016;-80
2023/05/11 06:16:09;;;;;;;18.67;13.00;;;12.50;99.90;;;;;;6227416;23;20312;-83
2023/05/11 06:18:35;;;;;;;20.23;13.25;;;12.50;99.90;;;;;;6226397;23;20501;-84
2023/05/11 06:21:01;;;;;;;17.27;12.82;;;12.50;99.90;;;;;;6226157;23;20012;-84
2023/05/11 06:23:32;;;;;;;22.35;14.20;;;12.60;99.90;;;;;;6251565;23;20003;-83
2023/05/11 06:25:58;;;;;;;19.45;13.88;;;12.50;99.90;;;;;;6227048;23;20004;-81
2023/05/11 06:28:24;;;;;;;22.45;15.52;;;;;;;;;;6222546;23;20079;-84
2023/05/11 06:30:49;;;;;;;22.40;15.43;;;12.50;99.90;;;;;;6220454;23;20000;-82
2023/05/11 06:33:15;;;;;;;19.98;14.77;;;;;;;;;;6221706;23;20034;-82
2023/05/11 06:35:41;;;;;;;25.00;16.45;;;12.70;99.90;;;;;;6219735;23;20008;-80
2023/05/11 06:38:07;;;;;;;24.10;15.70;;;12.90;99.90;;;;;;6248981;22;20008;-81
2023/05/11 06:40:33;;;;;;;22.13;15.77;;;;;;;;;;6243588;23;20004;-80
2023/05/11 06:42:59;;;;;;;23.95;15.35;;;;;;;;;;6216331;23;20004;-82
2023/05/11 06:45:24;;;;;;;19.30;14.18;;;13.00;99.90;;;;;;6220686;23;20004;-83
2023/05/11 06:47:50;;;;;;;22.95;15.30;;;;;;;;;;6247346;22;20499;-82
2023/05/11 06:50:16;;;;;;;23.10;15.13;;;13.30;99.90;;;;;;6218220;23;20413;-85
2023/05/11 06:52:42;;;;;;;19.35;13.88;;;;;;;;;;6232427;22;20047;-82
2023/05/11 06:55:12;;;;;;;19.27;13.65;;;13.40;99.90;;;;;;6249738;22;20083;-82
2023/05/11 06:57:38;;;;;;;21.85;13.80;;;;;;;;;;6244205;22;20035;-83
2023/05/11 07:00:05;;;;;;;19.02;12.90;;;13.30;99.90;;;;;;6239686;22;20078;-83
2023/05/11 07:02:31;;;;;;;15.88;11.73;;;13.30;99.90;;;;;;6247966;22;20030;-81
2023/05/11 07:04:57;;;;;;;18.83;11.32;;;;;;;;;;6241596;23;20204;-85
2023/05/11 07:07:25;;;;;;;17.10;11.35;;;13.40;99.90;;;;;;6244507;22;20011;-80
2023/05/11 07:09:51;;;;;;;16.58;11.13;;;;;;;;;;6246433;22;20386;-84
2023/05/11 07:12:17;;;;;;;15.35;10.80;;;13.40;99.90;;;;;;6248118;23;20008;-84
2023/05/11 07:14:45;;;;;;;13.38;9.60;;;;;;;;;;6244668;22;20014;-84
2023/05/11 07:17:11;;;;;;;15.68;10.75;;;13.60;99.90;;;;;;6242823;22;20004;-84
2023/05/11 07:19:37;;;;;;;16.60;10.57;;;;;;;;;;6241968;22;20019;-81
2023/05/11 07:22:04;;;;;;;13.65;10.32;;;13.80;99.90;;;;;;6241961;22;20008;-82
2023/05/11 07:24:30;;;;;;;18.13;10.82;;;14.00;99.90;;;;;;6249818;23;20013;-82
2023/05/11 07:26:56;;;;;;;15.70;10.02;;;14.00;99.90;;;;;;6246556;22;20008;-83
2023/05/11 07:29:22;;;;;;;13.65;10.80;;;14.20;99.90;;;;;;6246734;22;20007;-84
2023/05/11 07:31:47;;;;;;;13.18;9.77;;;14.20;99.90;;;;;;6251281;23;20000;-83
2023/05/11 07:34:13;;;;;;;13.95;9.85;;;;;;;;;;6249585;23;20034;-84
2023/05/11 07:36:39;;;;;;;17.52;9.68;;;14.40;99.90;;;;;;6247965;23;20107;-83
2023/05/11 07:39:05;;;;;;;15.60;9.98;;;;;;;;;;6245498;22;20055;-84
2023/05/11 07:41:31;;;;;;;15.00;10.20;;;;;;;;;;6244449;22;20012;-83
2023/05/11 07:44:00;;;;;;;16.38;10.75;;;14.50;99.90;;;;;;6246384;23;20008;-86
2023/05/11 07:46:26;;;;;;;12.07;9.32;;;14.50;99.90;;;;;;6239625;23;20000;-85
2023/05/11 07:48:52;;;;;;;11.75;9.45;;;;;;;;;;6240769;22;20369;-88
2023/05/11 07:51:18;;;;;;;14.60;9.20;;;;;;;;;;6244773;22;20103;-85
2023/05/11 07:53:44;;;;;;;13.88;9.15;;;;;;;;;;6240454;22;20073;-84
2023/05/11 07:56:09;;;;;;;19.10;9.88;;;14.70;99.90;;;;;;6239637;22;20370;-84
2023/05/11 07:58:35;;;;;;;13.48;9.82;;;;;;;;;;6240975;22;20008;-84
2023/05/11 08:01:02;;;;;;;14.73;11.15;;;;;;;;;;6245529;22;20034;-87
2023/05/11 08:03:28;;;;;;;14.75;9.65;;;;;;;;;;6253762;22;20435;-87
2023/05/11 08:05:54;;;;;;;19.02;9.75;;;;;;;;;;6249964;23;20030;-84
2023/05/11 08:08:20;;;;;;;19.92;10.60;;;;;;;;;;6253333;22;20020;-84
2023/05/11 08:10:46;;;;;;;14.50;9.60;;;;;;;;;;6251932;22;20053;-83
2023/05/11 08:13:14;;;;;;;14.68;9.70;;;14.90;99.90;;;;;;6253185;23;20015;-84
2023/05/11 08:15:40;;;;;;;15.57;9.50;;;;;;;;;;6253408;22;20004;-84
2023/05/11 08:18:07;;;;;;;14.32;10.20;;;;;;;;;;6252650;22;20000;-85
2023/05/11 08:20:32;;;;;;;14.80;11.00;;;14.90;99.90;;;;;;6252204;22;20008;-84
2023/05/11 08:22:58;;;;;;;14.15;10.75;;;;;;;;;;6248112;22;20087;-83
2023/05/11 08:25:24;;;;;;;14.30;10.98;;;;;;;;;;6252345;22;20004;-84
2023/05/11 08:27:50;;;;;;;13.35;10.15;;;;;;;;;;6254259;22;20004;-82
2023/05/11 08:30:17;;;;;;;14.85;10.80;;;;;;;;;;6253633;22;20080;-85
2023/05/11 08:32:43;;;;;;;17.13;10.48;;;15.10;99.90;;;;;;6252302;23;20012;-82
2023/05/11 08:35:09;;;;;;;14.23;10.20;;;15.20;99.90;;;;;;6253700;23;20490;-83
2023/05/11 08:37:34;;;;;;;12.90;9.10;;;15.40;99.90;;;;;;6251804;23;20024;-81
2023/05/11 08:40:00;;;;;;;14.50;9.10;;;15.40;99.90;;;;;;6251767;22;20004;-82
2023/05/11 08:42:28;;;;;;;15.90;8.82;;;15.40;99.90;;;;;;6253276;23;20047;-83
2023/05/11 08:44:58;;;;;;;16.90;9.77;;;15.20;99.90;;;;;;6250811;23;20438;-81
2023/05/11 08:47:24;;;;;;;16.17;9.43;;;15.20;99.90;;;;;;6251044;23;20010;-82
2023/05/11 08:49:51;;;;;;;12.25;8.20;;;15.20;99.90;;;;;;6251567;22;20007;-82
2023/05/11 08:52:17;;;;;;;15.38;9.38;;;15.20;99.90;;;;;;6251825;22;20047;-81
2023/05/11 08:54:43;;;;;;;14.50;9.10;;;;;;;;;;6251018;23;20031;-80
2023/05/11 08:57:10;;;;;;;13.80;8.65;;;15.20;99.90;;;;;;6252322;23;20004;-81
2023/05/11 08:59:36;;;;;;;11.88;7.95;;;;;;;;;;6251191;22;20015;-80
2023/05/11 09:02:03;;;;;;;12.85;8.73;;;15.20;99.90;;;;;;6250602;23;20004;-80
2023/05/11 09:04:30;;;;;;;14.48;8.18;;;15.30;99.90;;;;;;6251255;23;20004;-84
2023/05/11 09:06:56;;;;;;;12.90;8.57;;;;;;;;;;6250886;22;20000;-83
2023/05/11 09:09:22;;;;;;;15.68;8.45;;;14.90;99.90;;;;;;6252649;22;20011;-84
2023/05/11 09:11:48;;;;;;;10.52;7.00;;;15.00;99.90;;;;;;6227090;23;20020;-84
2023/05/11 09:14:15;;;;;;;12.85;7.47;;;;;;;;;;6252433;22;20090;-86
2023/05/11 09:16:41;;;;;;;12.57;7.60;;;;;;;;;;6251399;22;20019;-82
2023/05/11 09:19:12;;;;;;;11.18;7.28;;;14.90;99.90;;;;;;6251280;22;20031;-80
2023/05/11 09:21:38;;;;;;;11.45;7.72;;;;;;;;;;6250781;23;20004;-81
2023/05/11 09:24:05;;;;;;;11.88;8.43;;;15.00;99.90;;;;;;6251181;22;20019;-83
2023/05/11 09:26:33;;;;;;;14.50;8.65;;;15.00;99.90;;;;;;6252827;23;20011;-83
2023/05/11 09:28:59;;;;;;;16.83;8.70;;;;;;;;;;6254384;22;20019;-83
2023/05/11 09:31:38;;;;;;;16.27;9.07;;;15.30;99.90;;;;;;6254037;22;20015;-85
2023/05/11 09:34:17;;;;;;;13.02;8.57;;;15.30;99.90;;;;;;6252858;22;20005;-86
2023/05/11 09:36:47;;;;;;;10.63;7.28;;;15.40;99.90;;;;;;6253408;22;20071;-83
2023/05/11 09:39:13;;;;;;;10.80;6.90;;;15.40;99.90;;;;;;6250507;22;20004;-83
2023/05/11 09:41:39;;;;;;;10.90;6.30;;;;;;;;;;6248849;23;20034;-81
2023/05/11 09:44:15;;;;;;;8.82;6.10;;;15.70;99.90;;;;;;6247943;23;20004;-83
2023/05/11 09:46:43;;;;;;;8.35;6.47;;;16.00;99.90;;;;;;6250513;22;20053;-87
2023/05/11 09:49:10;;;;;;;10.73;5.38;;;16.20;99.90;;;;;;6248815;22;20004;-85
2023/05/11 09:51:39;;;;;;;7.22;4.57;;;16.30;99.90;;;;;;6253802;22;20413;-88
2023/05/11 09:54:21;;;;;;;8.07;4.93;;;16.50;99.90;;;;;;6281031;22;20011;-87
2023/05/11 09:56:55;;;;;;;8.80;4.22;;;16.90;99.90;;;;;;6278979;22;20003;-86
2023/05/11 09:59:40;;;;;;;7.78;3.60;;;16.90;99.90;;;;;;6257065;22;20015;-86
2023/05/11 10:02:19;;;;;;;8.98;3.53;;;17.40;99.90;;;;;;6242727;23;20008;-86
2023/05/11 10:04:46;;;;;;;5.72;2.95;;;17.60;99.90;;;;;;6224205;23;20435;-87
2023/05/11 10:07:26;;;;;;;5.60;3.10;;;18.00;99.90;;;;;;6223279;23;20035;-85
2023/05/11 10:09:52;;;;;;;;;;;18.00;99.90;;;;;;6229326;23;20079;-85
2023/05/11 10:12:20;;;;;;;6.03;3.30;;;18.10;99.90;;;;;;6232982;23;19903;-87
2023/05/11 10:14:48;;;;;;;5.75;2.88;;;18.00;99.90;;;;;;6234111;23;20012;-86
2023/05/11 10:17:14;;;;;;;9.23;2.70;;;17.80;99.90;;;;;;6258770;23;20004;-86
2023/05/11 10:19:41;;;;;;;5.38;3.10;;;;;;;;;;6231720;23;20031;-86
2023/05/11 10:22:07;;;;;;;6.57;3.50;;;17.40;99.90;;;;;;6258630;22;20021;-84
2023/05/11 10:24:33;;;;;;;7.47;3.58;;;;;;;;;;6233237;23;20014;-87
2023/05/11 10:27:00;;;;;;;8.43;3.60;;;17.00;99.90;;;;;;6231190;23;20058;-88
2023/05/11 10:29:26;;;;;;;8.20;3.53;;;;;;;;;;6229303;23;20000;-86
2023/05/11 10:31:54;;;;;;;6.82;4.00;;;16.50;99.90;;;;;;6256237;22;20000;-83
2023/05/11 10:34:22;;;;;;;7.35;3.80;;;;;;;;;;6260523;23;20015;-85
2023/05/11 10:36:48;;;;;;;8.40;3.92;;;;;;;;;;6260239;23;20448;-87
2023/05/11 10:39:14;;;;;;;7.97;4.30;;;;;;;;;;6232007;23;20008;-86
2023/05/11 10:41:54;;;;;;;5.53;3.78;;;15.90;99.90;;;;;;6229828;23;20029;-88
2023/05/11 10:44:26;;;;;;;8.57;3.95;;;15.70;99.90;;;;;;6233021;23;20008;-86
2023/05/11 10:47:20;;;;;;;8.93;4.70;;;15.80;99.90;;;;;;6259579;23;20008;-89
2023/05/11 10:50:24;;;;;;;9.38;4.95;;;15.50;99.90;;;;;;6258116;23;20020;-86
2023/05/11 10:53:08;;;;;;;8.80;4.65;;;15.50;99.90;;;;;;6243775;23;20035;-86
2023/05/11 10:55:54;;;;;;;14.93;5.75;;;15.50;99.90;;;;;;6257798;23;20343;-86
2023/05/11 10:58:48;;;;;;;8.73;4.88;;;15.60;99.90;;;;;;6257334;23;20061;-84
2023/05/11 11:01:24;;;;;;;10.18;5.47;;;15.50;99.90;;;;;;6265476;22;20429;-86
2023/05/11 11:03:58;;;;;;;11.27;5.47;;;15.40;99.90;;;;;;6240233;23;20004;-89
2023/05/11 11:06:24;;;;;;;11.43;5.28;;;15.30;99.90;;;;;;6237023;23;20066;-87
2023/05/11 11:09:02;;;;;;;8.82;5.43;;;17.00;99.90;;;;;;6260118;23;20000;-88
2023/05/11 11:11:45;;;;;;;9.18;5.47;;;15.40;99.90;;;;;;6254472;22;20646;-87
2023/05/11 11:14:15;;;;;;;9.35;4.90;;;15.50;99.90;;;;;;6254347;23;20004;-84
2023/05/11 11:17:01;;;;;;;7.55;4.78;;;15.50;99.90;;;;;;6254674;23;20065;-87
2023/05/11 11:19:29;;;;;;;9.88;5.45;;;15.60;99.90;;;;;;6256503;23;20012;-87
2023/05/11 11:22:00;;;;;;;10.10;5.65;;;15.70;99.90;;;;;;6257157;22;20004;-87
2023/05/11 11:24:38;;;;;;;9.05;5.10;;;15.60;99.90;;;;;;6258480;23;20000;-88
2023/05/11 11:27:05;;;;;;;12.50;5.00;;;15.70;99.90;;;;;;6256772;23;20000;-87
2023/05/11 11:29:31;;;;;;;9.70;5.38;;;15.70;99.90;;;;;;6256241;22;20011;-88
2023/05/11 11:32:22;;;;;;;13.82;5.38;;;15.80;99.90;;;;;;6254418;22;20000;-88
2023/05/11 11:34:49;;;;;;;10.80;5.45;;;15.90;99.90;;;;;;6258999;22;20004;-87
2023/05/11 11:37:15;;;;;;;9.60;5.78;;;;;;;;;;6255207;22;20707;-86
2023/05/11 11:39:41;;;;;;;9.45;5.38;;;;;;;;;;6254326;22;20011;-86
2023/05/11 11:42:15;;;;;;;9.07;5.22;;;15.90;99.90;;;;;;6250929;22;20551;-87
2023/05/11 11:44:42;;;;;;;8.90;4.82;;;16.20;99.90;;;;;;6251301;23;20004;-88
2023/05/11 11:47:13;;;;;;;10.00;5.20;;;16.20;99.90;;;;;;6253383;23;20000;-85
2023/05/11 11:49:40;;;;;;;13.13;5.88;;;16.40;99.90;;;;;;6253956;23;20004;-88
2023/05/11 11:52:11;;;;;;;12.00;5.10;;;18.20;99.90;;;;;;6253689;22;20722;-86
2023/05/11 11:54:43;;;;;;;13.23;6.32;;;16.40;99.90;;;;;;6252376;23;20004;-87
2023/05/11 11:57:33;;;;;;;11.75;5.72;;;17.00;99.90;;;;;;6226682;23;20024;-88
2023/05/11 12:00:01;;;;;;;8.68;4.72;;;16.60;99.90;;;;;;6224705;23;20026;-88
2023/05/11 12:02:27;;;;;;;9.63;4.85;;;16.90;99.90;;;;;;6252229;22;20004;-86
2023/05/11 12:05:00;;;;;;;9.63;5.20;;;17.10;99.90;;;;;;6227955;23;20008;-87
2023/05/11 12:07:31;;;;;;;8.80;5.30;;;17.20;99.90;;;;;;6229545;23;20004;-88
2023/05/11 12:09:58;;;;;;;10.63;5.38;;;17.20;99.90;;;;;;6226788;23;20004;-87
2023/05/11 12:12:24;;;;;;;10.20;5.28;;;17.30;99.90;;;;;;6228523;23;20467;-87
2023/05/11 12:14:50;;;;;;;9.52;4.90;;;17.40;99.90;;;;;;6226643;23;20076;-87
2023/05/11 12:17:28;;;;;;;9.90;5.70;;;17.30;99.90;;;;;;6226555;23;20004;-89
2023/05/11 12:19:54;;;;;;;13.30;6.25;;;17.50;99.90;;;;;;6226978;23;20015;-89
2023/05/11 12:22:24;;;;;;;11.55;6.85;;;17.70;99.90;;;;;;6227220;23;20004;-86
2023/05/11 12:24:50;;;;;;;9.15;4.88;;;;;;;;;;6254747;23;20088;-88
2023/05/11 12:27:19;;;;;;;11.70;5.10;;;17.70;99.90;;;;;;6226463;23;20126;-86
2023/05/11 12:29:52;;;;;;;8.48;4.03;;;18.80;99.90;;;;;;6224425;23;20004;-86
2023/05/11 12:32:29;;;;;;;11.80;4.53;;;17.70;99.90;;;;;;6225250;23;20008;-86
2023/05/11 12:35:00;;;;;;;7.40;3.83;;;17.70;99.90;;;;;;6225350;23;19996;-85
2023/05/11 12:37:26;;;;;;;9.07;4.05;;;17.90;99.90;;;;;;6250340;23;20004;-87
2023/05/11 12:39:56;;;;;;;8.90;4.15;;;17.90;99.90;;;;;;6222462;23;20007;-86
2023/05/11 12:42:22;;;;;;;12.52;4.55;;;17.90;99.90;;;;;;6246507;22;20015;-85
2023/05/11 12:44:48;;;;;;;8.57;3.65;;;18.00;99.90;;;;;;6248275;23;20004;-85
2023/05/11 12:47:14;;;;;;;6.63;3.58;;;18.00;99.90;;;;;;6247490;23;20424;-87
2023/05/11 12:49:43;;;;;;;9.25;3.65;;;18.00;99.90;;;;;;6248494;23;20498;-85
2023/05/11 12:52:09;;;;;;;9.80;3.60;;;18.10;99.90;;;;;;6226741;23;20008;-85
2023/05/11 12:54:40;;;;;;;6.80;3.58;;;18.10;99.90;;;;;;6248783;23;20008;-87
2023/05/11 12:57:08;;;;;;;6.80;3.15;;;18.10;99.90;;;;;;6246932;23;20329;-85
2023/05/11 12:59:36;;;;;;;5.68;3.40;;;18.00;99.90;;;;;;6247683;23;20007;-86
2023/05/11 13:02:19;;;;;;;8.05;3.15;;;18.20;99.90;;;;;;6249214;22;20000;-85
2023/05/11 13:04:46;;;;;;;7.35;3.60;;;18.20;99.90;;;;;;6251510;22;20010;-85
2023/05/11 13:07:22;;;;;;;5.13;3.45;;;18.10;99.90;;;;;;6247701;23;20007;-86
2023/05/11 13:09:56;;;;;;;9.18;3.42;;;18.00;99.90;;;;;;6225025;23;20142;-87
2023/05/11 13:12:23;;;;;;;5.65;3.00;;;18.00;99.90;;;;;;6248360;22;20081;-86
2023/05/11 13:15:04;;;;;;;7.30;3.53;;;18.10;99.90;;;;;;6249750;23;20004;-86
2023/05/11 13:17:30;;;;;;;8.88;3.45;;;18.00;99.90;;;;;;6253403;22;20015;-87
2023/05/11 13:19:57;;;;;;;6.10;3.17;;;;;;;;;;6247083;22;20428;-85
2023/05/11 13:22:23;;;;;;;6.38;3.30;;;;;;;;;;6245595;22;20051;-87
2023/05/11 13:24:49;;;;;;;11.20;3.28;;;18.30;99.90;;;;;;6244102;23;20004;-87
2023/05/11 13:27:15;;;;;;;8.05;3.00;;;;;;;;;;6245168;23;20004;-87
2023/05/11 13:29:41;;;;;;;6.40;3.30;;;18.10;99.90;;;;;;6244491;23;20044;-85
2023/05/11 13:32:07;;;;;;;11.25;4.95;;;;;;;;;;6248267;22;20511;-86
2023/05/11 13:34:33;;;;;;;12.15;3.90;;;;;;;;;;6247614;23;20008;-87
2023/05/11 13:36:59;;;;;;;7.20;2.67;;;;;;;;;;6247941;23;20150;-87